Prosser Lakeview, California
Current Conditions -  °F | °C
As of 7:45 AM on Tuesday 21 Oct 2014 (Local Time) from KTRK Reporting Station
Scattered Clouds Scattered Clouds  
Wind Chill: 23°   Ceiling: Unl
Heat Index: 23°   Visibility: 10mi
Dew Point: 21°   Wind: 3mph
Humidity: 93%   Direction: 240°WSW
Pressure: 30.14"   Gusts: NA
Location:  39.3569°N, 120.175°W
Report Text: KTRK 211445Z 24003KT 10SM SCT130 M05/M06 A3014 RMK NOSPECI
Loading
Personal Weather Stations






























Interactive Weather Map
Tropical Storm Tracking
New forecast layout! Learn more

10-Day Weather Forecast

Advertisements
Track Severe Weather on mobile